ACA430 CYYZ-CYUL
Flight info
| Callsign | ACA430 |
|---|---|
| Flight time | 0h 53m |
| Altitude | 33000 |
| Route | DEDKI5 MIGLO HABBS7 |
| Aircraft | A35K/H-SDE2E3GHIJ3J4J5LM1ORWXY/LB1D1 |
Departure
| Time | 2026-05-04 01:20 |
|---|---|
| Airport | Toronto Pearson International Airport (CYYZ) |
Arrival
| Time | 2026-05-04 02:14 |
|---|---|
| Airport | Montreal / Pierre Elliott Trudeau International Airport (CYUL) |
| Time | Latitude | Longitude | Altitude | Speed | Heading |
|---|---|---|---|---|---|
| 2026-05-04 00:51 | 43.68193 | -79.61634 | 574 ft | 0 kts | 58° |
| 2026-05-04 01:06 | 43.68188 | -79.61646 | 575 ft | 4 kts | 58° |
| 2026-05-04 01:06 | 43.68174 | -79.61676 | 575 ft | 2 kts | 59° |
| 2026-05-04 01:06 | 43.68164 | -79.61703 | 572 ft | 4 kts | 78° |
| 2026-05-04 01:06 | 43.68165 | -79.61738 | 572 ft | 4 kts | 116° |
| 2026-05-04 01:07 | 43.68181 | -79.61766 | 574 ft | 4 kts | 135° |
| 2026-05-04 01:07 | 43.68201 | -79.61792 | 571 ft | 4 kts | 137° |
| 2026-05-04 01:07 | 43.68221 | -79.61815 | 570 ft | 4 kts | 149° |
| 2026-05-04 01:07 | 43.68240 | -79.61826 | 576 ft | 0 kts | 171° |
| 2026-05-04 01:09 | 43.68239 | -79.61826 | 567 ft | 1 kts | 171° |
| 2026-05-04 01:09 | 43.68222 | -79.61823 | 574 ft | 4 kts | 172° |
| 2026-05-04 01:09 | 43.68183 | -79.61822 | 572 ft | 7 kts | 187° |
| 2026-05-04 01:10 | 43.68134 | -79.61858 | 576 ft | 10 kts | 223° |
| 2026-05-04 01:10 | 43.68081 | -79.61934 | 574 ft | 12 kts | 226° |
| 2026-05-04 01:10 | 43.68002 | -79.61996 | 576 ft | 13 kts | 205° |
| 2026-05-04 01:10 | 43.67974 | -79.62089 | 574 ft | 11 kts | 296° |
| 2026-05-04 01:11 | 43.68032 | -79.62179 | 574 ft | 14 kts | 316° |
| 2026-05-04 01:11 | 43.68110 | -79.62280 | 574 ft | 17 kts | 317° |
| 2026-05-04 01:11 | 43.68200 | -79.62398 | 574 ft | 18 kts | 317° |
| 2026-05-04 01:11 | 43.68302 | -79.62516 | 575 ft | 18 kts | 319° |
| 2026-05-04 01:12 | 43.68398 | -79.62641 | 574 ft | 20 kts | 316° |
| 2026-05-04 01:12 | 43.68486 | -79.62756 | 577 ft | 15 kts | 316° |
| 2026-05-04 01:12 | 43.68570 | -79.62866 | 573 ft | 17 kts | 317° |
| 2026-05-04 01:12 | 43.68652 | -79.62971 | 572 ft | 16 kts | 317° |
| 2026-05-04 01:13 | 43.68729 | -79.63074 | 572 ft | 15 kts | 316° |
| 2026-05-04 01:13 | 43.68771 | -79.63128 | 574 ft | 9 kts | 316° |
| 2026-05-04 01:13 | 43.68823 | -79.63197 | 573 ft | 12 kts | 316° |
| 2026-05-04 01:13 | 43.68891 | -79.63285 | 575 ft | 15 kts | 316° |
| 2026-05-04 01:14 | 43.68968 | -79.63386 | 573 ft | 16 kts | 316° |
| 2026-05-04 01:14 | 43.69055 | -79.63500 | 577 ft | 10 kts | 316° |
| 2026-05-04 01:14 | 43.69107 | -79.63519 | 576 ft | 8 kts | 15° |
| 2026-05-04 01:14 | 43.69159 | -79.63468 | 576 ft | 11 kts | 39° |
| 2026-05-04 01:15 | 43.69233 | -79.63428 | 573 ft | 6 kts | 8° |
| 2026-05-04 01:15 | 43.69247 | -79.63425 | 575 ft | 4 kts | 8° |
| 2026-05-04 01:15 | 43.69251 | -79.63425 | 573 ft | 0 kts | 8° |
| 2026-05-04 01:16 | 43.69252 | -79.63424 | 573 ft | 2 kts | 8° |
| 2026-05-04 01:16 | 43.69285 | -79.63420 | 573 ft | 8 kts | 3° |
| 2026-05-04 01:17 | 43.69318 | -79.63418 | 575 ft | 2 kts | 0° |
| 2026-05-04 01:17 | 43.69334 | -79.63420 | 571 ft | 4 kts | 348° |
| 2026-05-04 01:17 | 43.69398 | -79.63468 | 576 ft | 10 kts | 309° |
| 2026-05-04 01:17 | 43.69375 | -79.63562 | 572 ft | 12 kts | 227° |
| 2026-05-04 01:18 | 43.69366 | -79.63575 | 573 ft | 0 kts | 227° |
| 2026-05-04 01:19 | 43.69366 | -79.63576 | 573 ft | 1 kts | 227° |
| 2026-05-04 01:20 | 43.69308 | -79.63661 | 574 ft | 43 kts | 227° |
| 2026-05-04 01:20 | 43.68915 | -79.64232 | 580 ft | 119 kts | 226° |
| 2026-05-04 01:20 | 43.68216 | -79.65244 | 767 ft | 162 kts | 226° |
| 2026-05-04 01:20 | 43.67417 | -79.66398 | 1668 ft | 165 kts | 228° |
| 2026-05-04 01:21 | 43.66702 | -79.67645 | 2560 ft | 174 kts | 238° |
| 2026-05-04 01:21 | 43.66014 | -79.69108 | 3304 ft | 185 kts | 241° |
| 2026-05-04 01:21 | 43.65293 | -79.70648 | 3982 ft | 201 kts | 240° |
| 2026-05-04 01:21 | 43.64476 | -79.72331 | 4640 ft | 218 kts | 240° |
| 2026-05-04 01:22 | 43.63593 | -79.74084 | 5508 ft | 226 kts | 238° |
| 2026-05-04 01:22 | 43.62504 | -79.75721 | 6359 ft | 238 kts | 226° |
| 2026-05-04 01:22 | 43.61030 | -79.76877 | 6848 ft | 253 kts | 206° |
| 2026-05-04 01:22 | 43.59215 | -79.77079 | 7009 ft | 275 kts | 178° |
| 2026-05-04 01:23 | 43.57444 | -79.75913 | 7026 ft | 296 kts | 145° |
| 2026-05-04 01:23 | 43.56125 | -79.73676 | 7165 ft | 303 kts | 130° |
| 2026-05-04 01:23 | 43.54994 | -79.71196 | 7756 ft | 310 kts | 122° |
| 2026-05-04 01:23 | 43.53970 | -79.68570 | 8829 ft | 312 kts | 121° |
| 2026-05-04 01:24 | 43.52953 | -79.65919 | 9934 ft | 315 kts | 120° |
| 2026-05-04 01:24 | 43.51923 | -79.63199 | 10715 ft | 329 kts | 120° |
| 2026-05-04 01:24 | 43.50923 | -79.60239 | 11149 ft | 355 kts | 110° |
| 2026-05-04 01:24 | 43.50611 | -79.56779 | 11595 ft | 376 kts | 84° |
| 2026-05-04 01:25 | 43.51168 | -79.53214 | 12369 ft | 384 kts | 72° |
| 2026-05-04 01:25 | 43.51910 | -79.49649 | 13302 ft | 390 kts | 72° |
| 2026-05-04 01:25 | 43.52648 | -79.46027 | 14170 ft | 396 kts | 73° |
| 2026-05-04 01:25 | 43.53379 | -79.42341 | 14979 ft | 402 kts | 73° |
| 2026-05-04 01:26 | 43.54176 | -79.38618 | 15736 ft | 409 kts | 70° |
| 2026-05-04 01:26 | 43.54214 | -79.38453 | 15761 ft | 409 kts | 70° |
| 2026-05-04 01:26 | 43.55038 | -79.34907 | 16539 ft | 415 kts | 70° |
| 2026-05-04 01:27 | 43.55916 | -79.31098 | 17430 ft | 419 kts | 70° |
| 2026-05-04 01:27 | 43.56792 | -79.27247 | 18349 ft | 424 kts | 70° |
| 2026-05-04 01:27 | 43.57674 | -79.23332 | 19129 ft | 430 kts | 70° |
| 2026-05-04 01:27 | 43.58560 | -79.19377 | 19898 ft | 435 kts | 70° |
| 2026-05-04 01:28 | 43.59454 | -79.15370 | 20675 ft | 440 kts | 70° |
| 2026-05-04 01:28 | 43.60358 | -79.11308 | 21463 ft | 445 kts | 70° |
| 2026-05-04 01:28 | 43.61256 | -79.07257 | 22247 ft | 450 kts | 70° |
| 2026-05-04 01:28 | 43.62174 | -79.03110 | 23013 ft | 454 kts | 70° |
| 2026-05-04 01:29 | 43.63100 | -78.98918 | 23723 ft | 459 kts | 70° |
| 2026-05-04 01:29 | 43.64033 | -78.94683 | 24364 ft | 463 kts | 70° |
| 2026-05-04 01:29 | 43.64985 | -78.90357 | 25004 ft | 467 kts | 70° |
| 2026-05-04 01:29 | 43.65920 | -78.86099 | 25651 ft | 471 kts | 70° |
| 2026-05-04 01:30 | 43.66872 | -78.81750 | 26297 ft | 475 kts | 70° |
| 2026-05-04 01:30 | 43.67832 | -78.77360 | 26943 ft | 479 kts | 70° |
| 2026-05-04 01:30 | 43.68816 | -78.72944 | 27549 ft | 483 kts | 68° |
| 2026-05-04 01:30 | 43.70024 | -78.68607 | 28190 ft | 484 kts | 63° |
| 2026-05-04 01:31 | 43.71343 | -78.64312 | 28811 ft | 488 kts | 63° |
| 2026-05-04 01:31 | 43.72683 | -78.59984 | 29399 ft | 492 kts | 63° |
| 2026-05-04 01:31 | 43.74032 | -78.55610 | 29945 ft | 496 kts | 63° |
| 2026-05-04 01:31 | 43.75385 | -78.51210 | 30409 ft | 500 kts | 63° |
| 2026-05-04 01:32 | 43.76747 | -78.46766 | 30872 ft | 503 kts | 63° |
| 2026-05-04 01:32 | 43.78115 | -78.42296 | 31297 ft | 506 kts | 63° |
| 2026-05-04 01:32 | 43.79490 | -78.37794 | 31715 ft | 509 kts | 63° |
| 2026-05-04 01:32 | 43.80871 | -78.33263 | 32120 ft | 513 kts | 63° |
| 2026-05-04 01:33 | 43.82255 | -78.28711 | 32572 ft | 514 kts | 64° |
| 2026-05-04 01:33 | 43.83647 | -78.24130 | 32830 ft | 516 kts | 64° |
| 2026-05-04 01:33 | 43.85034 | -78.19552 | 32858 ft | 515 kts | 64° |
| 2026-05-04 01:34 | 43.87797 | -78.10406 | 32860 ft | 515 kts | 64° |
| 2026-05-04 01:34 | 43.90558 | -78.01241 | 32862 ft | 515 kts | 64° |
| 2026-05-04 01:35 | 43.93310 | -77.92072 | 32866 ft | 515 kts | 64° |
| 2026-05-04 01:35 | 43.96055 | -77.82896 | 32861 ft | 515 kts | 64° |
| 2026-05-04 01:36 | 43.98793 | -77.73706 | 32862 ft | 515 kts | 64° |
| 2026-05-04 01:36 | 44.01526 | -77.64502 | 32861 ft | 515 kts | 64° |
| 2026-05-04 01:37 | 44.04249 | -77.55298 | 32862 ft | 515 kts | 64° |
| 2026-05-04 01:37 | 44.06976 | -77.46075 | 32858 ft | 515 kts | 64° |
| 2026-05-04 01:38 | 44.10437 | -77.37520 | 32861 ft | 509 kts | 53° |
| 2026-05-04 01:38 | 44.14296 | -77.29247 | 32862 ft | 510 kts | 53° |
| 2026-05-04 01:39 | 44.18142 | -77.20965 | 32867 ft | 510 kts | 53° |
| 2026-05-04 01:39 | 44.21984 | -77.12656 | 32868 ft | 510 kts | 53° |
| 2026-05-04 01:40 | 44.25819 | -77.04335 | 32886 ft | 510 kts | 54° |
| 2026-05-04 01:40 | 44.29646 | -76.96006 | 32869 ft | 510 kts | 54° |
| 2026-05-04 01:41 | 44.33496 | -76.87604 | 32874 ft | 510 kts | 54° |
| 2026-05-04 01:41 | 44.37312 | -76.79251 | 32876 ft | 510 kts | 54° |
| 2026-05-04 01:42 | 44.41097 | -76.70943 | 32861 ft | 510 kts | 54° |
| 2026-05-04 01:42 | 44.44908 | -76.62554 | 32858 ft | 511 kts | 54° |
| 2026-05-04 01:43 | 44.48714 | -76.54149 | 32860 ft | 511 kts | 54° |
| 2026-05-04 01:43 | 44.52516 | -76.45730 | 32867 ft | 511 kts | 54° |
| 2026-05-04 01:44 | 44.56311 | -76.37301 | 32850 ft | 511 kts | 54° |
| 2026-05-04 01:44 | 44.57539 | -76.34569 | 32857 ft | 511 kts | 54° |
| 2026-05-04 01:45 | 44.60930 | -76.27008 | 32849 ft | 512 kts | 54° |
| 2026-05-04 01:46 | 44.64413 | -76.18274 | 32847 ft | 516 kts | 64° |
| 2026-05-04 01:46 | 44.67179 | -76.08969 | 32845 ft | 517 kts | 65° |
| 2026-05-04 01:47 | 44.69917 | -75.99633 | 32839 ft | 517 kts | 65° |
| 2026-05-04 01:47 | 44.72535 | -75.90222 | 32838 ft | 517 kts | 67° |
| 2026-05-04 01:48 | 44.75025 | -75.80736 | 32831 ft | 517 kts | 67° |
| 2026-05-04 01:48 | 44.77529 | -75.71259 | 32833 ft | 516 kts | 67° |
| 2026-05-04 01:49 | 44.78776 | -75.66541 | 32680 ft | 511 kts | 67° |
| 2026-05-04 01:49 | 44.80008 | -75.61874 | 31832 ft | 509 kts | 66° |
| 2026-05-04 01:49 | 44.81249 | -75.57175 | 30681 ft | 515 kts | 66° |
| 2026-05-04 01:49 | 44.82484 | -75.52491 | 29682 ft | 517 kts | 66° |
| 2026-05-04 01:50 | 44.83747 | -75.47688 | 28770 ft | 514 kts | 66° |
| 2026-05-04 01:50 | 44.84981 | -75.43088 | 28331 ft | 503 kts | 65° |
| 2026-05-04 01:50 | 44.86289 | -75.38495 | 27752 ft | 495 kts | 64° |
| 2026-05-04 01:50 | 44.87570 | -75.34023 | 27139 ft | 488 kts | 64° |
| 2026-05-04 01:51 | 44.88811 | -75.29668 | 26517 ft | 483 kts | 64° |
| 2026-05-04 01:51 | 44.90048 | -75.25302 | 25925 ft | 477 kts | 64° |
| 2026-05-04 01:51 | 44.91269 | -75.20977 | 25328 ft | 472 kts | 64° |
| 2026-05-04 01:51 | 44.92471 | -75.16704 | 24739 ft | 467 kts | 64° |
| 2026-05-04 01:52 | 44.93660 | -75.12465 | 24133 ft | 462 kts | 64° |
| 2026-05-04 01:52 | 44.94834 | -75.08272 | 23580 ft | 458 kts | 64° |
| 2026-05-04 01:52 | 44.95997 | -75.04113 | 22920 ft | 453 kts | 64° |
| 2026-05-04 01:52 | 44.97145 | -74.99997 | 22331 ft | 447 kts | 64° |
| 2026-05-04 01:53 | 44.98299 | -74.95959 | 21757 ft | 440 kts | 62° |
| 2026-05-04 01:53 | 44.99679 | -74.92157 | 21215 ft | 431 kts | 56° |
| 2026-05-04 01:53 | 45.01143 | -74.88482 | 20637 ft | 426 kts | 56° |
| 2026-05-04 01:53 | 45.02598 | -74.84855 | 20072 ft | 424 kts | 56° |
| 2026-05-04 01:54 | 45.04048 | -74.81232 | 19514 ft | 422 kts | 56° |
| 2026-05-04 01:54 | 45.05485 | -74.77629 | 18924 ft | 419 kts | 56° |
| 2026-05-04 01:54 | 45.06908 | -74.74050 | 18352 ft | 416 kts | 56° |
| 2026-05-04 01:54 | 45.08319 | -74.70494 | 17739 ft | 413 kts | 56° |
| 2026-05-04 01:55 | 45.09718 | -74.66963 | 17138 ft | 410 kts | 56° |
| 2026-05-04 01:55 | 45.11102 | -74.63464 | 16563 ft | 406 kts | 56° |
| 2026-05-04 01:55 | 45.12488 | -74.59988 | 15992 ft | 403 kts | 55° |
| 2026-05-04 01:55 | 45.13950 | -74.56628 | 15414 ft | 399 kts | 53° |
| 2026-05-04 01:56 | 45.15428 | -74.53316 | 14832 ft | 396 kts | 53° |
| 2026-05-04 01:56 | 45.16887 | -74.50023 | 14257 ft | 394 kts | 53° |
| 2026-05-04 01:56 | 45.18330 | -74.46744 | 13676 ft | 391 kts | 53° |
| 2026-05-04 01:56 | 45.19762 | -74.43476 | 13051 ft | 388 kts | 53° |
| 2026-05-04 01:57 | 45.21178 | -74.40236 | 12466 ft | 384 kts | 53° |
| 2026-05-04 01:57 | 45.22570 | -74.37028 | 11912 ft | 380 kts | 54° |
| 2026-05-04 01:57 | 45.23944 | -74.33848 | 11317 ft | 376 kts | 54° |
| 2026-05-04 01:57 | 45.25282 | -74.30740 | 11124 ft | 360 kts | 54° |
| 2026-05-04 01:58 | 45.26553 | -74.27778 | 10986 ft | 342 kts | 53° |
| 2026-05-04 01:58 | 45.27763 | -74.24962 | 10859 ft | 326 kts | 53° |
| 2026-05-04 01:58 | 45.28917 | -74.22277 | 10722 ft | 311 kts | 53° |
| 2026-05-04 01:58 | 45.30021 | -74.19707 | 10582 ft | 298 kts | 53° |
| 2026-05-04 01:59 | 45.31083 | -74.17236 | 10467 ft | 288 kts | 52° |
| 2026-05-04 01:59 | 45.32110 | -74.14848 | 10312 ft | 279 kts | 52° |
| 2026-05-04 01:59 | 45.33121 | -74.12498 | 10117 ft | 279 kts | 52° |
| 2026-05-04 01:59 | 45.34139 | -74.10137 | 9852 ft | 285 kts | 52° |
| 2026-05-04 02:00 | 45.35188 | -74.07712 | 9785 ft | 296 kts | 52° |
| 2026-05-04 02:00 | 45.36349 | -74.05348 | 9414 ft | 288 kts | 42° |
| 2026-05-04 02:00 | 45.37771 | -74.03361 | 8953 ft | 285 kts | 36° |
| 2026-05-04 02:00 | 45.39247 | -74.01471 | 8641 ft | 286 kts | 36° |
| 2026-05-04 02:01 | 45.40719 | -73.99581 | 8342 ft | 285 kts | 37° |
| 2026-05-04 02:01 | 45.42188 | -73.97684 | 8041 ft | 284 kts | 37° |
| 2026-05-04 02:01 | 45.43648 | -73.95793 | 7751 ft | 285 kts | 37° |
| 2026-05-04 02:01 | 45.45117 | -73.93884 | 7470 ft | 287 kts | 38° |
| 2026-05-04 02:02 | 45.46592 | -73.91972 | 7178 ft | 286 kts | 38° |
| 2026-05-04 02:02 | 45.48059 | -73.90065 | 6860 ft | 285 kts | 38° |
| 2026-05-04 02:02 | 45.49517 | -73.88157 | 6565 ft | 284 kts | 39° |
| 2026-05-04 02:02 | 45.50973 | -73.86252 | 6262 ft | 283 kts | 39° |
| 2026-05-04 02:03 | 45.52419 | -73.84359 | 5938 ft | 282 kts | 39° |
| 2026-05-04 02:03 | 45.53859 | -73.82475 | 5648 ft | 280 kts | 39° |
| 2026-05-04 02:03 | 45.55291 | -73.80599 | 5350 ft | 279 kts | 39° |
| 2026-05-04 02:03 | 45.56689 | -73.78764 | 5196 ft | 267 kts | 39° |
| 2026-05-04 02:04 | 45.58022 | -73.77012 | 5054 ft | 254 kts | 39° |
| 2026-05-04 02:04 | 45.59295 | -73.75339 | 4913 ft | 243 kts | 39° |
| 2026-05-04 02:04 | 45.60515 | -73.73743 | 4773 ft | 234 kts | 39° |
| 2026-05-04 02:04 | 45.61713 | -73.72174 | 4604 ft | 233 kts | 39° |
| 2026-05-04 02:05 | 45.62504 | -73.71136 | 4460 ft | 232 kts | 40° |
| 2026-05-04 02:05 | 45.63691 | -73.69574 | 4224 ft | 232 kts | 40° |
| 2026-05-04 02:05 | 45.64877 | -73.68015 | 4024 ft | 231 kts | 40° |
| 2026-05-04 02:05 | 45.66062 | -73.66463 | 3980 ft | 231 kts | 40° |
| 2026-05-04 02:06 | 45.67246 | -73.64902 | 3999 ft | 231 kts | 40° |
| 2026-05-04 02:06 | 45.68428 | -73.63341 | 3979 ft | 231 kts | 40° |
| 2026-05-04 02:06 | 45.69606 | -73.61773 | 3979 ft | 232 kts | 42° |
| 2026-05-04 02:06 | 45.70470 | -73.59826 | 3995 ft | 235 kts | 72° |
| 2026-05-04 02:07 | 45.70531 | -73.57528 | 3993 ft | 233 kts | 105° |
| 2026-05-04 02:07 | 45.69799 | -73.55498 | 4002 ft | 230 kts | 131° |
| 2026-05-04 02:07 | 45.68749 | -73.53772 | 3967 ft | 231 kts | 135° |
| 2026-05-04 02:07 | 45.67552 | -73.52285 | 3653 ft | 227 kts | 155° |
| 2026-05-04 02:08 | 45.66054 | -73.51781 | 3232 ft | 221 kts | 185° |
| 2026-05-04 02:08 | 45.64561 | -73.52075 | 3012 ft | 212 kts | 196° |
| 2026-05-04 02:08 | 45.63346 | -73.53131 | 3006 ft | 205 kts | 231° |
| 2026-05-04 02:08 | 45.62443 | -73.54711 | 2995 ft | 206 kts | 232° |
| 2026-05-04 02:09 | 45.61485 | -73.56236 | 2995 ft | 207 kts | 227° |
| 2026-05-04 02:09 | 45.60450 | -73.57669 | 2995 ft | 207 kts | 224° |
| 2026-05-04 02:09 | 45.59385 | -73.59061 | 2999 ft | 207 kts | 224° |
| 2026-05-04 02:09 | 45.58350 | -73.60417 | 2884 ft | 197 kts | 224° |
| 2026-05-04 02:10 | 45.57364 | -73.61722 | 2665 ft | 189 kts | 225° |
| 2026-05-04 02:10 | 45.56419 | -73.62968 | 2390 ft | 179 kts | 224° |
| 2026-05-04 02:10 | 45.55537 | -73.64126 | 2134 ft | 167 kts | 224° |
| 2026-05-04 02:10 | 45.54720 | -73.65200 | 1903 ft | 153 kts | 224° |
| 2026-05-04 02:11 | 45.53969 | -73.66187 | 1698 ft | 141 kts | 224° |
| 2026-05-04 02:11 | 45.53276 | -73.67098 | 1509 ft | 131 kts | 224° |
| 2026-05-04 02:11 | 45.52616 | -73.67973 | 1320 ft | 129 kts | 224° |
| 2026-05-04 02:11 | 45.51955 | -73.68858 | 1115 ft | 131 kts | 224° |
| 2026-05-04 02:12 | 45.51283 | -73.69741 | 949 ft | 132 kts | 223° |
| 2026-05-04 02:12 | 45.50610 | -73.70628 | 768 ft | 132 kts | 223° |
| 2026-05-04 02:12 | 45.49938 | -73.71497 | 599 ft | 132 kts | 222° |
| 2026-05-04 02:12 | 45.49255 | -73.72375 | 404 ft | 132 kts | 223° |
| 2026-05-04 02:13 | 45.48582 | -73.73259 | 237 ft | 132 kts | 222° |
| 2026-05-04 02:13 | 45.47917 | -73.74127 | 120 ft | 125 kts | 222° |
| 2026-05-04 02:13 | 45.47332 | -73.74892 | 116 ft | 99 kts | 223° |
| 2026-05-04 02:13 | 45.46922 | -73.75432 | 111 ft | 54 kts | 223° |
| 2026-05-04 02:14 | 45.46677 | -73.75762 | 111 ft | 46 kts | 223° |
| 2026-05-04 02:14 | 45.46451 | -73.76052 | 109 ft | 38 kts | 222° |
| 2026-05-04 02:14 | 45.46299 | -73.76237 | 109 ft | 0 kts | 195° |
| 2026-05-04 02:14 | 45.46291 | -73.76237 | 109 ft | 2 kts | 180° |
| 2026-05-04 02:15 | 45.46266 | -73.76227 | 110 ft | 6 kts | 163° |
| 2026-05-04 02:15 | 45.46215 | -73.76202 | 109 ft | 10 kts | 159° |
| 2026-05-04 02:15 | 45.46133 | -73.76151 | 107 ft | 15 kts | 151° |
| 2026-05-04 02:15 | 45.46064 | -73.76076 | 110 ft | 10 kts | 127° |
| 2026-05-04 02:16 | 45.46051 | -73.75970 | 108 ft | 13 kts | 89° |
| 2026-05-04 02:16 | 45.46051 | -73.75934 | 108 ft | 3 kts | 89° |
| 2026-05-04 02:16 | 45.46054 | -73.75876 | 108 ft | 8 kts | 86° |
| 2026-05-04 02:16 | 45.46058 | -73.75801 | 107 ft | 7 kts | 87° |
| 2026-05-04 02:17 | 45.46040 | -73.75750 | 108 ft | 5 kts | 143° |
| 2026-05-04 02:17 | 45.46025 | -73.75744 | 107 ft | 1 kts | 168° |
| 2026-05-04 02:17 | 45.46010 | -73.75742 | 111 ft | 2 kts | 173° |
| 2026-05-04 02:17 | 45.45996 | -73.75740 | 110 ft | 1 kts | 175° |
| 2026-05-04 02:18 | 45.45987 | -73.75739 | 109 ft | 0 kts | 176° |
| 2026-05-04 02:27 | 45.45981 | -73.75738 | 111 ft | 0 kts | 177° |
| 2026-05-04 02:27 | 45.45982 | -73.75738 | 111 ft | 0 kts | 177° |